San Ardo, CA (93450)

4:00 PM PDT on October 20, 2014 (GMT -0700)
Heritage Ranch Riverview Complex | Change Station
CLOSE
Current Station
Personal Weather Station
Location: Heritage Ranch, CA
Elevation: 1082 ft
Nearby Weather Stations

Elev 1082 ft 35.74 °N, 120.87 °W | Updated 2 minutes ago

Partly Cloudy
Partly Cloudy
74.7 °F
Feels Like 78 °F
N
3.0
Wind Variable Wind from ENE
Gusts 7.0 mph

Today
High -- | Low -- °F
--% Chance of Precip.
Yesterday
High -- | Low -- °F
Precip. -- in
7:14 AM 6:21 PM
Waning Crescent, 8% visible
Pressure 29.90 in
Visibility 10.0 miles
Clouds Clear
Heat Index 78 °F
Dew Point 52 °F
Humidity 45%
Rainfall 0.00 in
Snow Depth Not available.
UV 2 out of 12
Pollen 3.50 out of 12
Air Quality Not available.
Flu Activity Sporadic
METAR KPRB 202253Z AUTO 34005KT 10SM CLR 25/09 A2991 RMK AO2 SLP123 T02500094 TSNO

More Conditions Fewer Conditions

Pressure 29.90 in
Visibility 10.0 miles
Clouds Clear
Heat Index 78 °F
Dew Point 52 °F
Humidity 45%
Rainfall 0.00 in
Snow Depth Not available.
UV 2 out of 12
Pollen 3.50 out of 12
Air Quality Not available.
Flu Activity Sporadic
METAR KPRB 202253Z AUTO 34005KT 10SM CLR 25/09 A2991 RMK AO2 SLP123 T02500094 TSNO

More Conditions Fewer Conditions

10-Day Weather Forecast

Almanac

Astronomy

Oct. 20, 2014 Rise Set
Actual Time 7:14 AM PDT 6:21 PM PDT
Civil Twilight 6:48 AM PDT 6:47 PM PDT
Nautical Twilight 6:19 AM PDT 7:17 PM PDT
Astronomical Twilight 5:49 AM PDT 7:46 PM PDT
Moon 4:13 AM PDT 4:41 PM PDT
Length of Visible Light 11h 58m
Length of Day
11h 06m
Waning Crescent, 8% of the Moon is Illuminated
Today
Waning Crescent
Oct 23
New
Oct 30
First Quarter
Nov 6
Full
Nov 14
Last Quarter

Today's Extremes

State Highs State Lows

Community

WunderPhotos

Upload Photos

1,763,544 photos uploaded!

WunderBlogs® & News

By Dr. Jeff Masters
Director of Meteorology, Weather Underground
By Kari Strenfel
Meteorologist, Weather Underground
By Christopher C. Burt
Weather Historian, Weather Underground
October 20, 2014
October 20, 2014
October 20, 2014

Nearby

Snow Depth

Station Depth Elevation
Leavitt Lake 0 in 9400 ft
Sonora Pass 0 in 8800 ft
Leavitt Meadows 0 in 7200 ft
Summit Meadow 0 in 9122 ft
Burnside Lake 0 in 8139 ft

Earthquake Activity

City Distance Mag. Time & Date
East Foothills, California 104 miles 2.6 8:16 AM PDT
2014-10-18
Minimum magnitude displayed is 2.5.

Coastal Water Temperatures

Place Temperature
No Stations Reporting

Nearby Weather Stations